Time;durP1;ratioP1;P1;durP2;ratioP2;P2;SDS_P1;SDS_P2;PMS_P1;PMS_P2;Temp;Humidity;BMP_temperature;BMP_pressure;BME280_temperature;BME280_humidity;BME280_pressure;Samples;Min_cycle;Max_cycle;Signal;HPM_P1;HPM_P2
2021/04/25 00:01:31;;;;;;;5.77;3.90;;;11.30;95.50;;;;;;5052409;28;20185;-72
2021/04/25 00:03:56;;;;;;;4.37;3.60;;;11.30;94.90;;;;;;5052420;28;20194;-72
2021/04/25 00:06:22;;;;;;;6.07;3.87;;;11.20;95.40;;;;;;5052440;28;20185;-72
2021/04/25 00:08:48;;;;;;;7.17;4.10;;;11.10;95.30;;;;;;5052253;28;20178;-71
2021/04/25 00:11:13;;;;;;;4.63;3.87;;;11.00;94.90;;;;;;5052297;28;21077;-71
2021/04/25 00:13:39;;;;;;;4.20;3.30;;;11.00;95.30;;;;;;5051850;28;20304;-71
2021/04/25 00:16:06;;;;;;;4.80;3.87;;;10.90;95.60;;;;;;5052282;28;20251;-72
2021/04/25 00:18:34;;;;;;;4.20;3.80;;;10.90;96.20;;;;;;5052341;28;20508;-71
2021/04/25 00:21:00;;;;;;;6.43;3.97;;;10.90;95.80;;;;;;5052263;28;20665;-72
2021/04/25 00:23:25;;;;;;;4.77;4.37;;;10.80;95.80;;;;;;5051964;28;20209;-71
2021/04/25 00:25:51;;;;;;;5.13;3.83;;;10.80;97.30;;;;;;5052136;28;20235;-72
2021/04/25 00:28:17;;;;;;;3.90;3.50;;;10.80;97.00;;;;;;5048117;28;20257;-72
2021/04/25 00:30:44;;;;;;;4.47;3.53;;;10.70;96.60;;;;;;5052009;28;20186;-71
2021/04/25 00:33:09;;;;;;;4.00;3.60;;;10.50;96.70;;;;;;5046489;28;20193;-71
2021/04/25 00:35:37;;;;;;;3.90;3.60;;;10.50;97.40;;;;;;5056144;28;20179;-72
2021/04/25 00:38:03;;;;;;;3.73;3.33;;;10.50;97.60;;;;;;5050388;28;20168;-72
2021/04/25 00:40:28;;;;;;;5.37;3.80;;;10.40;97.30;;;;;;5056064;28;20252;-71
2021/04/25 00:42:54;;;;;;;4.67;3.30;;;10.30;97.90;;;;;;5051949;28;20170;-71
2021/04/25 00:45:20;;;;;;;5.40;4.20;;;10.40;98.10;;;;;;5056027;28;20200;-72
2021/04/25 00:47:48;;;;;;;3.97;3.57;;;10.40;97.60;;;;;;5056068;28;20174;-72
2021/04/25 00:50:17;;;;;;;4.13;3.73;;;10.40;97.20;;;;;;5055885;28;20170;-71
2021/04/25 00:52:46;;;;;;;6.83;4.47;;;10.30;97.30;;;;;;5055805;28;20173;-71
2021/04/25 00:55:14;;;;;;;6.27;3.90;;;10.20;97.30;;;;;;5043869;28;20215;-72
2021/04/25 00:57:41;;;;;;;4.47;4.07;;;10.20;97.80;;;;;;5037873;28;20166;-71
2021/04/25 01:00:11;;;;;;;5.57;3.40;;;10.10;97.90;;;;;;5060514;28;20175;-70
2021/04/25 01:02:37;;;;;;;4.33;3.40;;;10.20;98.50;;;;;;5075275;28;20682;-71
2021/04/25 01:05:06;;;;;;;5.93;3.70;;;10.10;98.20;;;;;;5057191;28;20671;-71
2021/04/25 01:07:32;;;;;;;5.00;3.90;;;10.10;98.10;;;;;;5074957;28;20650;-71
2021/04/25 01:09:58;;;;;;;6.13;4.13;;;10.00;99.00;;;;;;5056709;28;20183;-72
2021/04/25 01:12:25;;;;;;;4.63;3.50;;;10.00;98.70;;;;;;5074743;28;20562;-72
2021/04/25 01:14:50;;;;;;;4.27;3.87;;;9.90;98.60;;;;;;5070453;28;20200;-72
2021/04/25 01:17:17;;;;;;;5.10;4.23;;;9.90;99.00;;;;;;5074555;28;20176;-71
2021/04/25 01:19:43;;;;;;;6.70;4.60;;;9.90;99.40;;;;;;5074729;28;20229;-71
2021/04/25 01:22:08;;;;;;;8.53;4.63;;;9.90;98.60;;;;;;5074538;28;20646;-71
2021/04/25 01:24:34;;;;;;;5.77;4.70;;;10.00;97.80;;;;;;5056674;28;20197;-71
2021/04/25 01:27:00;;;;;;;8.20;4.60;;;10.10;97.70;;;;;;5074293;28;20614;-72
2021/04/25 01:29:25;;;;;;;7.23;4.93;;;10.20;98.70;;;;;;5068042;28;20182;-72
2021/04/25 01:31:51;;;;;;;9.43;4.43;;;10.10;97.10;;;;;;5053591;28;20244;-72
2021/04/25 01:34:17;;;;;;;7.63;4.93;;;10.30;96.70;;;;;;5054996;28;20205;-72
2021/04/25 01:36:43;;;;;;;7.80;4.80;;;10.30;97.00;;;;;;5055168;28;20165;-72
2021/04/25 01:39:08;;;;;;;6.70;4.97;;;10.30;97.00;;;;;;5055062;28;20594;-72
2021/04/25 01:41:34;;;;;;;10.87;5.60;;;10.40;96.10;;;;;;5054789;28;20188;-71
2021/04/25 01:44:01;;;;;;;7.90;5.03;;;10.40;96.00;;;;;;5054238;28;20209;-72
2021/04/25 01:46:26;;;;;;;9.90;6.00;;;10.50;95.90;;;;;;5054944;28;20208;-72
2021/04/25 01:48:52;;;;;;;7.50;5.77;;;10.50;95.40;;;;;;5054767;28;20209;-72
2021/04/25 01:51:18;;;;;;;7.57;5.73;;;10.60;95.50;;;;;;5041577;28;20244;-71
2021/04/25 01:53:43;;;;;;;10.03;5.20;;;10.60;95.10;;;;;;5054632;28;20189;-72
2021/04/25 01:56:09;;;;;;;9.63;6.57;;;10.60;96.00;;;;;;5043492;28;20550;-72
2021/04/25 01:58:35;;;;;;;8.90;6.10;;;10.60;95.00;;;;;;5036599;28;20534;-72
2021/04/25 02:01:01;;;;;;;7.80;6.00;;;10.60;97.20;;;;;;5054423;28;20264;-72
2021/04/25 02:03:27;;;;;;;7.80;6.13;;;10.60;96.10;;;;;;5054152;28;20210;-71
2021/04/25 02:05:52;;;;;;;8.10;6.10;;;10.60;95.30;;;;;;5047290;28;20178;-72
2021/04/25 02:08:18;;;;;;;7.17;5.83;;;10.60;95.90;;;;;;5054278;28;20662;-71
2021/04/25 02:10:46;;;;;;;10.07;5.50;;;10.60;95.20;;;;;;5054388;28;20235;-72
2021/04/25 02:13:13;;;;;;;8.80;6.10;;;10.60;96.20;;;;;;5054346;28;20209;-70
2021/04/25 02:15:39;;;;;;;7.50;5.87;;;10.60;95.20;;;;;;5090877;22;20597;-73
2021/04/25 02:18:05;;;;;;;8.40;5.87;;;10.60;95.50;;;;;;5074198;28;20219;-71
2021/04/25 02:20:32;;;;;;;7.93;5.70;;;10.50;95.20;;;;;;5068316;28;20264;-72
2021/04/25 02:22:58;;;;;;;9.40;5.93;;;10.50;95.30;;;;;;5053820;28;20212;-72
2021/04/25 02:25:25;;;;;;;10.20;6.07;;;10.40;95.40;;;;;;5072085;28;20201;-72
2021/04/25 02:27:52;;;;;;;8.87;5.90;;;10.40;96.00;;;;;;5051418;28;20264;-72
2021/04/25 02:30:26;;;;;;;11.57;5.90;;;10.30;95.50;;;;;;5068108;28;20192;-72
2021/04/25 02:32:53;;;;;;;8.97;5.63;;;10.30;95.70;;;;;;5073813;28;20188;-73
2021/04/25 02:35:20;;;;;;;9.43;6.37;;;10.30;96.30;;;;;;5073027;28;20193;-72
2021/04/25 02:37:47;;;;;;;7.30;5.63;;;10.30;96.00;;;;;;5073558;28;20227;-72
2021/04/25 02:40:16;;;;;;;8.20;6.03;;;10.30;96.00;;;;;;5073596;28;20197;-72
2021/04/25 02:42:43;;;;;;;6.93;5.90;;;10.20;96.00;;;;;;5073542;28;20172;-73
2021/04/25 02:45:15;;;;;;;8.47;6.03;;;10.20;96.00;;;;;;5073503;28;20227;-72
2021/04/25 02:48:02;;;;;;;8.37;6.33;;;10.20;96.10;;;;;;5073407;28;20651;-72
2021/04/25 02:50:37;;;;;;;8.27;5.80;;;10.10;96.50;;;;;;5072551;28;20168;-72
2021/04/25 02:53:04;;;;;;;9.93;6.47;;;10.10;97.00;;;;;;5085072;28;20229;-72
2021/04/25 02:55:30;;;;;;;7.90;5.30;;;10.10;96.60;;;;;;5092923;28;20286;-72
2021/04/25 02:57:56;;;;;;;8.07;6.53;;;10.00;96.50;;;;;;5075528;28;20262;-72
2021/04/25 03:00:25;;;;;;;11.20;5.97;;;9.90;97.10;;;;;;5094407;28;20236;-73
2021/04/25 03:02:51;;;;;;;8.33;6.17;;;9.80;96.90;;;;;;5093524;28;20266;-72
2021/04/25 03:05:17;;;;;;;8.80;6.37;;;9.90;97.10;;;;;;5093662;28;20688;-72
2021/04/25 03:07:44;;;;;;;8.40;5.83;;;9.80;97.00;;;;;;5093883;28;20195;-72
2021/04/25 03:10:12;;;;;;;7.07;6.13;;;9.90;97.40;;;;;;5080592;28;20291;-73
2021/04/25 03:12:37;;;;;;;9.30;6.50;;;9.80;97.00;;;;;;5073372;28;20685;-72
2021/04/25 03:15:05;;;;;;;9.50;6.20;;;9.80;97.50;;;;;;5055214;28;20224;-72
2021/04/25 03:17:30;;;;;;;7.27;5.90;;;9.80;97.20;;;;;;5073205;28;20180;-73
2021/04/25 03:19:56;;;;;;;8.40;5.73;;;9.80;98.10;;;;;;5073118;28;20176;-72
2021/04/25 03:22:22;;;;;;;7.70;5.33;;;9.90;97.50;;;;;;5073300;28;20208;-72
2021/04/25 03:24:48;;;;;;;10.60;6.40;;;9.80;97.50;;;;;;5073046;28;20227;-72
2021/04/25 03:27:14;;;;;;;9.30;6.43;;;9.70;97.20;;;;;;5055212;28;20180;-71
2021/04/25 03:29:40;;;;;;;6.30;5.70;;;9.70;97.40;;;;;;5055655;28;20325;-73
2021/04/25 03:32:06;;;;;;;6.57;5.77;;;9.70;97.50;;;;;;5088081;28;20290;-72
2021/04/25 03:34:32;;;;;;;7.17;5.70;;;9.70;97.50;;;;;;5093314;28;20195;-72
2021/04/25 03:36:58;;;;;;;8.80;6.37;;;9.60;97.50;;;;;;5103692;28;20179;-73
2021/04/25 03:39:24;;;;;;;9.33;6.10;;;9.60;97.70;;;;;;5084764;28;20524;-72
2021/04/25 03:41:50;;;;;;;10.17;6.60;;;9.60;97.70;;;;;;5100847;28;20657;-72
2021/04/25 03:44:15;;;;;;;8.03;6.10;;;9.60;97.60;;;;;;5095085;28;20198;-71
2021/04/25 03:46:42;;;;;;;10.80;6.63;;;9.60;97.60;;;;;;5078650;28;20261;-72
2021/04/25 03:49:08;;;;;;;8.13;6.27;;;9.50;97.80;;;;;;5078515;28;20715;-73
2021/04/25 03:51:34;;;;;;;8.30;6.00;;;9.40;97.90;;;;;;5097472;28;20202;-72
2021/04/25 03:54:00;;;;;;;7.43;5.80;;;9.50;98.00;;;;;;5098805;28;20214;-72
2021/04/25 03:56:26;;;;;;;8.80;6.33;;;9.50;98.20;;;;;;5098340;28;20171;-73
2021/04/25 03:58:52;;;;;;;7.47;5.47;;;9.40;98.10;;;;;;5079922;28;20185;-72
2021/04/25 04:01:17;;;;;;;7.07;6.03;;;9.40;98.10;;;;;;5081465;28;20250;-72
2021/04/25 04:03:44;;;;;;;8.17;6.53;;;9.40;98.20;;;;;;5062522;28;20211;-72
2021/04/25 04:06:09;;;;;;;8.50;6.60;;;9.40;98.60;;;;;;5054952;28;20276;-72
2021/04/25 04:08:36;;;;;;;9.17;6.17;;;9.40;98.10;;;;;;5074372;28;20178;-71
2021/04/25 04:11:01;;;;;;;8.43;5.97;;;9.30;98.60;;;;;;5073726;28;20199;-72
2021/04/25 04:13:27;;;;;;;8.47;6.17;;;9.40;98.80;;;;;;5057049;28;20205;-72
2021/04/25 04:15:53;;;;;;;6.83;6.13;;;9.40;99.00;;;;;;5055502;28;20696;-72
2021/04/25 04:18:20;;;;;;;11.00;6.53;;;9.40;98.70;;;;;;5072794;28;20176;-72
2021/04/25 04:20:46;;;;;;;9.20;5.80;;;9.40;98.20;;;;;;5054323;28;20204;-71
2021/04/25 04:23:12;;;;;;;13.27;6.23;;;9.30;98.20;;;;;;5053958;28;20186;-72
2021/04/25 04:25:38;;;;;;;7.03;5.63;;;9.30;98.80;;;;;;5054308;28;20203;-72
2021/04/25 04:28:04;;;;;;;9.97;6.80;;;9.20;99.00;;;;;;5071998;28;20258;-72
2021/04/25 04:30:29;;;;;;;8.27;6.10;;;9.20;98.70;;;;;;5073321;28;20254;-72
2021/04/25 04:32:55;;;;;;;6.60;5.57;;;9.20;99.20;;;;;;5069946;28;20176;-71
2021/04/25 04:35:21;;;;;;;10.20;6.13;;;9.20;98.90;;;;;;5055143;28;20197;-72
2021/04/25 04:37:47;;;;;;;8.93;6.23;;;9.20;98.60;;;;;;5069059;28;20177;-71
2021/04/25 04:40:14;;;;;;;9.93;5.80;;;9.10;98.90;;;;;;5071981;28;20295;-72
2021/04/25 04:42:40;;;;;;;8.73;5.40;;;9.20;98.80;;;;;;5071707;28;20183;-72
2021/04/25 04:45:06;;;;;;;7.40;6.20;;;9.10;98.50;;;;;;5071909;28;20233;-72
2021/04/25 04:47:32;;;;;;;11.87;5.90;;;9.20;99.40;;;;;;5071709;28;20183;-72
2021/04/25 04:49:58;;;;;;;7.90;6.50;;;9.20;98.90;;;;;;5054490;28;20229;-72
2021/04/25 04:52:23;;;;;;;7.00;5.97;;;9.10;98.80;;;;;;5072310;28;20202;-72
2021/04/25 04:54:49;;;;;;;6.67;5.70;;;9.00;98.60;;;;;;5072273;28;20199;-72
2021/04/25 04:57:15;;;;;;;12.17;6.10;;;9.00;98.90;;;;;;5072445;28;20590;-72
2021/04/25 04:59:44;;;;;;;6.83;5.70;;;9.00;99.10;;;;;;5053976;28;20199;-72
2021/04/25 05:02:10;;;;;;;9.17;5.47;;;9.00;98.90;;;;;;5072231;28;20185;-72
2021/04/25 05:04:36;;;;;;;7.63;5.83;;;8.90;99.40;;;;;;5072581;28;20549;-73
2021/04/25 05:07:01;;;;;;;7.87;6.40;;;8.90;99.50;;;;;;5072329;28;20208;-72
2021/04/25 05:09:27;;;;;;;8.33;5.93;;;9.00;99.10;;;;;;5072388;28;20546;-72
2021/04/25 05:11:56;;;;;;;8.73;6.00;;;9.00;99.30;;;;;;5073011;28;20289;-72
2021/04/25 05:14:21;;;;;;;9.40;5.80;;;9.00;99.10;;;;;;5053641;28;20217;-71
2021/04/25 05:16:47;;;;;;;8.40;5.80;;;8.90;99.20;;;;;;5072183;28;20185;-72
2021/04/25 05:19:14;;;;;;;8.20;6.00;;;9.00;99.30;;;;;;5063338;28;20177;-72
2021/04/25 05:21:39;;;;;;;7.90;6.27;;;9.00;99.70;;;;;;5096275;28;20181;-72
2021/04/25 05:24:07;;;;;;;6.63;5.93;;;9.10;99.20;;;;;;5096199;28;20203;-71
2021/04/25 05:26:33;;;;;;;9.13;6.23;;;9.10;99.70;;;;;;5096200;28;20178;-72
2021/04/25 05:28:58;;;;;;;9.53;6.10;;;9.20;99.10;;;;;;5096300;28;20185;-71
2021/04/25 05:31:25;;;;;;;8.40;6.10;;;9.10;99.20;;;;;;5077673;28;20200;-71
2021/04/25 05:33:50;;;;;;;7.53;5.90;;;9.10;99.70;;;;;;5073482;28;20271;-71
2021/04/25 05:36:16;;;;;;;8.13;6.00;;;9.10;99.30;;;;;;5075532;28;20262;-71
2021/04/25 05:38:42;;;;;;;8.60;6.07;;;9.10;99.20;;;;;;5057590;28;20183;-72
2021/04/25 05:41:08;;;;;;;9.03;6.47;;;9.10;99.50;;;;;;5077361;28;20182;-71
2021/04/25 05:43:34;;;;;;;8.03;6.03;;;9.20;99.40;;;;;;5072776;28;20262;-71
2021/04/25 05:45:59;;;;;;;10.93;6.17;;;9.20;99.20;;;;;;5056453;28;20296;-72
2021/04/25 05:48:25;;;;;;;7.77;6.13;;;9.20;99.20;;;;;;5074842;28;20554;-71
2021/04/25 05:50:51;;;;;;;9.67;5.67;;;9.20;99.30;;;;;;5072121;28;20207;-71
2021/04/25 05:53:16;;;;;;;6.67;5.67;;;9.10;99.50;;;;;;5074688;28;20182;-71
2021/04/25 05:55:43;;;;;;;9.00;5.87;;;9.20;99.40;;;;;;5074772;28;20677;-71
2021/04/25 05:58:09;;;;;;;8.13;6.37;;;9.20;99.50;;;;;;5071097;28;20540;-71
2021/04/25 06:00:38;;;;;;;11.50;5.93;;;9.20;99.50;;;;;;5065496;28;20178;-72
2021/04/25 06:03:04;;;;;;;9.87;6.23;;;9.40;99.50;;;;;;5049942;28;20646;-71
2021/04/25 06:05:30;;;;;;;11.33;6.40;;;9.40;99.50;;;;;;5074133;28;20660;-71
2021/04/25 06:07:56;;;;;;;6.50;5.80;;;9.50;99.40;;;;;;5055816;28;20182;-71
2021/04/25 06:10:23;;;;;;;7.23;5.87;;;9.50;99.50;;;;;;5073658;28;20180;-71
2021/04/25 06:12:51;;;;;;;7.00;5.73;;;9.60;99.50;;;;;;5073669;28;20192;-71
2021/04/25 06:15:19;;;;;;;9.30;6.00;;;9.60;99.30;;;;;;5073353;28;20264;-71
2021/04/25 06:17:46;;;;;;;9.83;5.77;;;9.70;99.20;;;;;;5073658;28;20180;-72
2021/04/25 06:20:13;;;;;;;7.90;6.10;;;9.70;99.10;;;;;;5073443;28;20720;-71
2021/04/25 06:22:39;;;;;;;6.57;5.37;;;9.80;99.60;;;;;;5073509;28;20649;-71
2021/04/25 06:25:06;;;;;;;8.50;5.90;;;9.90;98.90;;;;;;5055181;28;20202;-71
2021/04/25 06:27:32;;;;;;;8.13;5.70;;;10.00;99.20;;;;;;5073178;28;20202;-71
2021/04/25 06:29:57;;;;;;;10.80;6.40;;;10.10;99.00;;;;;;5073345;28;20204;-72
2021/04/25 06:32:23;;;;;;;7.50;5.77;;;10.10;98.90;;;;;;5070906;28;20200;-71
2021/04/25 06:34:49;;;;;;;10.07;6.67;;;10.10;99.20;;;;;;5054959;28;20297;-71
2021/04/25 06:37:15;;;;;;;6.57;5.53;;;10.20;98.70;;;;;;5073195;28;20219;-71
2021/04/25 06:39:40;;;;;;;9.20;5.70;;;10.20;99.00;;;;;;5073030;28;20809;-71
2021/04/25 06:42:06;;;;;;;9.00;6.67;;;10.30;98.90;;;;;;5057142;28;20197;-72
2021/04/25 06:44:32;;;;;;;8.47;6.03;;;10.30;98.30;;;;;;5070358;28;20590;-72
2021/04/25 06:46:58;;;;;;;9.83;6.23;;;10.40;98.50;;;;;;5054921;28;20176;-71
2021/04/25 06:49:24;;;;;;;8.20;6.50;;;10.40;99.10;;;;;;5058533;28;20603;-71
2021/04/25 06:51:51;;;;;;;9.20;5.90;;;10.50;98.50;;;;;;5073016;28;20209;-71
2021/04/25 06:54:17;;;;;;;12.43;6.63;;;10.60;98.30;;;;;;5073232;28;20230;-71
2021/04/25 06:56:43;;;;;;;8.70;6.10;;;10.70;98.40;;;;;;5068456;28;20223;-71
2021/04/25 06:59:09;;;;;;;11.93;6.40;;;10.80;97.90;;;;;;5074167;28;20223;-71
2021/04/25 07:01:35;;;;;;;9.80;6.47;;;10.80;97.70;;;;;;5056128;28;20263;-71
2021/04/25 07:04:01;;;;;;;13.13;6.33;;;10.80;97.40;;;;;;5074046;28;20203;-71
2021/04/25 07:06:27;;;;;;;8.20;6.20;;;10.90;97.40;;;;;;5073418;28;20542;-71
2021/04/25 07:08:52;;;;;;;12.20;6.67;;;10.90;97.60;;;;;;5073308;28;20187;-71
2021/04/25 07:11:18;;;;;;;8.10;6.67;;;11.00;97.70;;;;;;5055856;28;20224;-71
2021/04/25 07:13:44;;;;;;;8.37;6.00;;;10.90;97.40;;;;;;5055976;28;20166;-71
2021/04/25 07:16:10;;;;;;;8.50;6.73;;;11.00;97.50;;;;;;5056552;28;20173;-71
2021/04/25 07:18:36;;;;;;;9.37;6.47;;;11.00;97.80;;;;;;5073792;28;20706;-71
2021/04/25 07:21:02;;;;;;;12.60;6.40;;;11.00;97.80;;;;;;5073768;28;20192;-71
2021/04/25 07:23:28;;;;;;;11.93;6.57;;;11.10;98.20;;;;;;5073607;28;20215;-72
2021/04/25 07:25:56;;;;;;;7.90;6.90;;;11.20;97.90;;;;;;5073657;28;20196;-71
2021/04/25 07:28:23;;;;;;;12.57;6.80;;;11.20;98.10;;;;;;5073529;28;20260;-71
2021/04/25 07:30:48;;;;;;;8.53;6.90;;;11.40;97.80;;;;;;5067709;28;20177;-71
2021/04/25 07:33:15;;;;;;;9.03;7.07;;;11.40;98.40;;;;;;5073191;28;20176;-71
2021/04/25 07:35:41;;;;;;;8.77;6.87;;;11.50;97.70;;;;;;5073187;28;20263;-73
2021/04/25 07:38:08;;;;;;;9.63;7.37;;;11.50;97.60;;;;;;5073347;28;20176;-72
2021/04/25 07:40:34;;;;;;;14.37;7.60;;;11.70;97.40;;;;;;5073077;28;20233;-72
2021/04/25 07:43:00;;;;;;;10.17;7.63;;;11.80;97.20;;;;;;5072921;28;20213;-72
2021/04/25 07:45:26;;;;;;;11.33;7.83;;;11.80;97.90;;;;;;5073171;28;20667;-71
2021/04/25 07:47:52;;;;;;;11.70;6.83;;;11.90;96.70;;;;;;5073118;28;20566;-71
2021/04/25 07:50:17;;;;;;;9.67;7.40;;;11.90;96.80;;;;;;5073137;28;20173;-72
2021/04/25 07:52:43;;;;;;;9.80;7.47;;;11.90;97.30;;;;;;5054768;28;20702;-72
2021/04/25 07:55:10;;;;;;;12.57;7.67;;;11.90;97.50;;;;;;5072823;28;20204;-73
2021/04/25 07:57:37;;;;;;;8.90;6.97;;;12.00;97.20;;;;;;5073056;28;20173;-72
2021/04/25 08:00:06;;;;;;;8.43;7.07;;;12.10;97.10;;;;;;5072872;28;20540;-72
2021/04/25 08:02:31;;;;;;;7.40;6.60;;;12.10;97.00;;;;;;5072896;28;20544;-73
2021/04/25 08:04:57;;;;;;;10.10;7.60;;;12.20;97.50;;;;;;5072576;28;20193;-72
2021/04/25 08:07:22;;;;;;;9.60;6.93;;;12.10;97.60;;;;;;5072737;28;20177;-72
2021/04/25 08:09:48;;;;;;;13.43;7.27;;;12.10;98.10;;;;;;5054913;28;20173;-72
2021/04/25 08:12:14;;;;;;;8.93;6.77;;;12.20;97.70;;;;;;5052796;28;20450;-72
2021/04/25 08:17:08;;;;;;;12.30;7.23;;;12.50;96.00;;;;;;5050175;28;20209;-70
2021/04/25 08:19:33;;;;;;;11.33;6.83;;;12.70;95.70;;;;;;5052706;28;20663;-70
2021/04/25 08:21:59;;;;;;;10.07;6.70;;;12.80;95.90;;;;;;5052490;28;20178;-69
2021/04/25 08:24:25;;;;;;;11.17;7.40;;;12.90;95.70;;;;;;5052647;28;20186;-70
2021/04/25 08:26:52;;;;;;;10.73;6.87;;;13.10;94.50;;;;;;5052761;28;20197;-70
2021/04/25 08:29:17;;;;;;;8.27;6.83;;;13.10;94.50;;;;;;5052830;28;20303;-70
2021/04/25 08:31:43;;;;;;;9.20;6.90;;;13.20;94.00;;;;;;5052714;28;20628;-70
2021/04/25 08:34:09;;;;;;;10.50;7.37;;;13.20;94.10;;;;;;5052599;28;20245;-71
2021/04/25 08:36:35;;;;;;;8.70;7.50;;;13.20;94.40;;;;;;5052595;28;20195;-69
2021/04/25 08:39:01;;;;;;;8.03;6.90;;;13.20;94.60;;;;;;5052408;28;20248;-69
2021/04/25 08:41:29;;;;;;;9.20;7.50;;;13.30;94.80;;;;;;5052727;28;20231;-69
2021/04/25 08:43:55;;;;;;;8.70;7.40;;;13.40;94.90;;;;;;5052831;28;20639;-69
2021/04/25 08:46:24;;;;;;;8.37;7.43;;;13.40;94.60;;;;;;5053099;28;20280;-69
2021/04/25 08:48:50;;;;;;;8.40;6.80;;;13.60;96.80;;;;;;5052645;28;20174;-69
2021/04/25 08:51:17;;;;;;;10.63;7.20;;;13.60;94.20;;;;;;5051285;28;20197;-70
2021/04/25 08:53:44;;;;;;;8.20;6.87;;;13.70;95.60;;;;;;5054214;28;20680;-69
2021/04/25 08:56:10;;;;;;;17.90;7.27;;;13.80;95.10;;;;;;5056492;28;20585;-69
2021/04/25 08:58:36;;;;;;;8.50;7.57;;;13.90;95.30;;;;;;5056087;28;20265;-69
2021/04/25 09:01:03;;;;;;;10.67;7.07;;;14.00;93.40;;;;;;5059085;28;20273;-68
2021/04/25 09:03:29;;;;;;;12.73;7.57;;;14.10;93.80;;;;;;5055094;28;20180;-69
2021/04/25 09:05:58;;;;;;;8.73;7.83;;;14.00;93.50;;;;;;5055329;28;20259;-69
2021/04/25 09:08:48;;;;;;;12.10;7.43;;;14.10;93.70;;;;;;5055975;28;20184;-69
2021/04/25 09:11:30;;;;;;;12.47;7.50;;;14.30;94.10;;;;;;5054414;28;20226;-69
2021/04/25 09:14:22;;;;;;;9.47;7.80;;;14.40;92.70;;;;;;5055271;28;20205;-69
2021/04/25 09:16:54;;;;;;;11.27;7.40;;;14.30;93.50;;;;;;5055042;28;20209;-68
2021/04/25 09:19:21;;;;;;;9.20;7.80;;;14.30;93.20;;;;;;5055432;28;20179;-68
2021/04/25 09:22:00;;;;;;;12.23;7.43;;;14.50;94.00;;;;;;5054805;28;20175;-69
2021/04/25 09:24:31;;;;;;;12.70;7.53;;;14.80;93.20;;;;;;5054624;28;20543;-68
2021/04/25 09:26:57;;;;;;;10.90;7.73;;;15.10;92.50;;;;;;5051535;28;20584;-69
2021/04/25 09:29:26;;;;;;;12.37;8.40;;;15.30;92.90;;;;;;5054696;28;20256;-70
2021/04/25 09:31:55;;;;;;;10.97;7.73;;;15.30;94.50;;;;;;5053938;28;20691;-69
2021/04/25 09:34:29;;;;;;;10.83;8.60;;;15.40;92.80;;;;;;5052757;28;20174;-70
2021/04/25 09:37:10;;;;;;;10.53;7.37;;;15.50;91.40;;;;;;5054509;28;20197;-68
2021/04/25 09:39:36;;;;;;;9.60;7.03;;;15.60;92.70;;;;;;5055739;28;20197;-69
2021/04/25 09:42:04;;;;;;;9.73;8.50;;;15.50;91.10;;;;;;5054398;28;20247;-70
2021/04/25 09:44:35;;;;;;;10.70;7.57;;;15.70;91.40;;;;;;5055458;28;20205;-69
2021/04/25 09:47:04;;;;;;;9.00;6.43;;;15.70;91.50;;;;;;5055733;28;20202;-69
2021/04/25 09:49:42;;;;;;;8.20;7.23;;;16.00;91.60;;;;;;5054148;28;20216;-70
2021/04/25 09:52:09;;;;;;;8.37;7.33;;;16.10;92.60;;;;;;5055525;28;20189;-69
2021/04/25 09:54:36;;;;;;;15.00;7.50;;;16.30;89.40;;;;;;5054107;28;20173;-69
2021/04/25 09:57:01;;;;;;;9.30;7.27;;;16.30;89.50;;;;;;5054038;28;20686;-69
2021/04/25 09:59:27;;;;;;;9.50;7.70;;;16.40;90.50;;;;;;5055304;28;20173;-68
2021/04/25 10:02:13;;;;;;;8.27;7.13;;;16.50;89.10;;;;;;5055184;28;20173;-69
2021/04/25 10:04:39;;;;;;;10.00;7.33;;;16.70;89.00;;;;;;5053614;28;20599;-69
2021/04/25 10:07:07;;;;;;;12.50;8.97;;;16.80;89.30;;;;;;5055527;28;20207;-69
2021/04/25 10:09:33;;;;;;;18.73;7.73;;;16.80;89.00;;;;;;5055649;28;20592;-69
2021/04/25 10:12:00;;;;;;;11.17;7.30;;;16.70;90.40;;;;;;5055135;28;20194;-69
2021/04/25 10:14:28;;;;;;;10.17;7.67;;;16.80;87.60;;;;;;5055310;28;20174;-69
2021/04/25 10:16:58;;;;;;;8.47;7.60;;;16.80;87.30;;;;;;5054775;28;20721;-69
2021/04/25 10:19:23;;;;;;;9.47;7.57;;;16.80;88.40;;;;;;5054948;28;20173;-69
2021/04/25 10:21:50;;;;;;;9.67;8.03;;;16.90;89.40;;;;;;5054628;28;20655;-70
2021/04/25 10:24:20;;;;;;;9.43;7.57;;;17.00;90.60;;;;;;5054892;28;20170;-69
2021/04/25 10:27:07;;;;;;;11.83;8.30;;;17.10;92.50;;;;;;5054698;28;20558;-69
2021/04/25 10:30:01;;;;;;;8.13;7.10;;;17.20;88.60;;;;;;5053526;28;20209;-69
2021/04/25 10:32:27;;;;;;;8.27;7.17;;;17.40;86.20;;;;;;5054877;28;20197;-68
2021/04/25 10:35:22;;;;;;;10.27;7.00;;;17.20;86.40;;;;;;5052909;28;20181;-69
2021/04/25 10:37:49;;;;;;;9.33;7.23;;;17.20;85.90;;;;;;5054612;28;20173;-71
2021/04/25 10:40:20;;;;;;;8.17;7.37;;;17.00;86.00;;;;;;5054515;28;20177;-69
2021/04/25 10:43:01;;;;;;;7.87;7.07;;;17.10;89.70;;;;;;5054379;28;20181;-68
2021/04/25 10:45:29;;;;;;;13.37;7.43;;;17.50;92.10;;;;;;5054503;28;20197;-68
2021/04/25 10:48:24;;;;;;;9.47;8.00;;;17.70;89.40;;;;;;5054270;28;20185;-68
2021/04/25 10:50:53;;;;;;;10.67;7.83;;;17.70;85.70;;;;;;5054256;28;20257;-68
2021/04/25 10:53:25;;;;;;;15.47;8.90;;;17.70;90.60;;;;;;5054217;28;20534;-69
2021/04/25 10:56:13;;;;;;;13.03;8.43;;;18.10;99.90;;;;;;5054508;28;20243;-69
2021/04/25 10:58:59;;;;;;;9.97;8.07;;;18.40;90.70;;;;;;5054169;28;20169;-69
2021/04/25 11:01:47;;;;;;;14.47;9.00;;;18.40;87.70;;;;;;5053796;28;20186;-70
2021/04/25 11:04:51;;;;;;;16.07;8.70;;;18.20;86.10;;;;;;5053786;28;20199;-68
2021/04/25 11:07:37;;;;;;;11.37;8.27;;;18.10;84.90;;;;;;5054373;28;20173;-68
2021/04/25 11:10:04;;;;;;;9.63;8.50;;;17.90;86.10;;;;;;5053814;28;20181;-68
2021/04/25 11:12:38;;;;;;;12.93;8.30;;;18.10;89.50;;;;;;5054249;28;20566;-68
2021/04/25 11:15:05;;;;;;;10.40;8.20;;;18.20;87.20;;;;;;5053785;28;20209;-69
2021/04/25 11:17:32;;;;;;;9.57;8.07;;;18.40;90.00;;;;;;5053439;28;20177;-68
2021/04/25 11:19:59;;;;;;;10.17;8.60;;;18.40;87.60;;;;;;5053738;28;20537;-69
2021/04/25 11:22:44;;;;;;;9.33;7.77;;;18.40;85.90;;;;;;5053714;28;20184;-68
2021/04/25 11:25:29;;;;;;;11.37;8.00;;;18.50;88.40;;;;;;5053706;28;20196;-68
2021/04/25 11:27:58;;;;;;;11.20;8.00;;;18.30;97.50;;;;;;5053639;28;20260;-68
2021/04/25 11:30:34;;;;;;;10.23;7.73;;;18.50;99.70;;;;;;5053494;28;20177;-69
2021/04/25 11:33:33;;;;;;;7.73;6.93;;;18.70;98.40;;;;;;5053730;28;20227;-67
2021/04/25 11:36:37;;;;;;;8.80;7.90;;;19.00;90.00;;;;;;5045799;28;20200;-67
2021/04/25 11:39:03;;;;;;;9.57;7.80;;;18.90;84.60;;;;;;5053432;28;20184;-68
2021/04/25 11:41:30;;;;;;;9.83;7.40;;;18.70;85.80;;;;;;5052066;28;20209;-69
2021/04/25 11:43:56;;;;;;;9.23;6.97;;;19.00;88.00;;;;;;5053593;28;20606;-70
2021/04/25 11:46:33;;;;;;;8.47;7.20;;;19.10;88.40;;;;;;5052246;28;20246;-69
2021/04/25 11:49:01;;;;;;;9.60;7.40;;;19.10;84.00;;;;;;5053240;28;20173;-69
2021/04/25 11:51:28;;;;;;;10.10;7.83;;;18.80;83.80;;;;;;5052965;28;20213;-70
2021/04/25 11:53:53;;;;;;;11.27;7.33;;;18.60;84.80;;;;;;5053169;28;20182;-70
2021/04/25 11:56:28;;;;;;;9.03;6.80;;;18.60;85.50;;;;;;5053107;28;20272;-70
2021/04/25 11:59:07;;;;;;;8.90;7.57;;;18.80;87.10;;;;;;5052628;28;20264;-69
2021/04/25 12:01:33;;;;;;;9.23;7.73;;;18.80;85.10;;;;;;5051518;28;20178;-69
2021/04/25 12:03:59;;;;;;;11.90;7.87;;;18.80;84.30;;;;;;5053070;28;20173;-69
2021/04/25 12:06:25;;;;;;;9.33;7.07;;;19.00;89.10;;;;;;5052112;28;20194;-70
2021/04/25 12:08:52;;;;;;;10.77;6.97;;;19.30;84.70;;;;;;5053155;28;20174;-70
2021/04/25 12:11:23;;;;;;;9.10;6.40;;;19.40;86.90;;;;;;5052993;28;20198;-69
2021/04/25 12:13:49;;;;;;;7.50;6.40;;;19.10;84.60;;;;;;5053076;28;20186;-70
2021/04/25 12:16:22;;;;;;;9.00;7.27;;;19.50;87.50;;;;;;5052869;28;20256;-69
2021/04/25 12:18:50;;;;;;;9.93;7.10;;;19.50;87.30;;;;;;5052900;28;20190;-70
2021/04/25 12:21:19;;;;;;;10.77;7.93;;;19.70;84.50;;;;;;5053185;28;20248;-70
2021/04/25 12:23:49;;;;;;;8.70;6.90;;;19.80;83.30;;;;;;5052850;28;20177;-70
2021/04/25 12:26:19;;;;;;;9.83;7.07;;;19.90;87.60;;;;;;5052921;28;20194;-70
2021/04/25 12:28:48;;;;;;;13.93;7.00;;;19.60;83.40;;;;;;5056106;28;20212;-70
2021/04/25 12:31:16;;;;;;;7.33;6.63;;;19.90;88.10;;;;;;5056483;28;20240;-70
2021/04/25 12:33:43;;;;;;;9.17;6.67;;;20.40;87.00;;;;;;5056944;28;20180;-71
2021/04/25 12:36:13;;;;;;;9.57;7.53;;;20.50;87.20;;;;;;5056840;28;20219;-69
2021/04/25 12:38:40;;;;;;;12.60;7.07;;;20.50;81.20;;;;;;5057018;28;20583;-69
2021/04/25 12:41:07;;;;;;;9.37;7.07;;;20.20;84.10;;;;;;5056695;28;20636;-69
2021/04/25 12:43:37;;;;;;;7.90;6.60;;;20.10;84.30;;;;;;5056875;28;20268;-69
2021/04/25 12:46:16;;;;;;;10.10;6.23;;;19.90;84.20;;;;;;5056903;28;20197;-70
2021/04/25 12:48:54;;;;;;;7.23;6.07;;;20.00;85.50;;;;;;5056710;28;20174;-70
2021/04/25 12:51:22;;;;;;;7.33;6.27;;;20.20;84.30;;;;;;5056497;28;20278;-70
2021/04/25 12:53:51;;;;;;;8.13;6.77;;;20.10;84.20;;;;;;5056585;28;20173;-69
2021/04/25 12:56:26;;;;;;;7.87;6.20;;;20.20;80.80;;;;;;5056592;28;20190;-69